createdAt,value
2018-09-29T00:02:38.252Z,4.43
2018-09-29T00:05:10.403Z,5.07
2018-09-29T00:07:39.560Z,4.57
2018-09-29T01:02:38.743Z,3.23
2018-09-29T01:05:07.814Z,2.40
2018-09-29T01:07:36.890Z,3.10
2018-09-29T01:10:06.924Z,3.53
2018-09-29T02:02:37.401Z,2.03
2018-09-29T02:05:06.449Z,3.47
2018-09-29T02:07:35.448Z,5.70
2018-09-29T02:10:04.499Z,3.20
2018-09-29T03:02:38.683Z,3.43
2018-09-29T03:05:07.744Z,2.73
2018-09-29T03:07:36.745Z,3.23
2018-09-29T03:10:05.779Z,3.57
2018-09-29T04:02:38.221Z,4.80
2018-09-29T04:05:07.241Z,3.17
2018-09-29T04:07:36.285Z,2.90
2018-09-29T04:10:05.350Z,4.13
2018-09-29T05:02:37.696Z,5.33
2018-09-29T05:05:06.717Z,5.20
2018-09-29T05:07:35.785Z,5.37
2018-09-29T05:10:04.826Z,3.43
2018-09-29T06:02:37.314Z,5.90
2018-09-29T06:05:06.313Z,2.83
2018-09-29T06:07:35.467Z,2.07
2018-09-29T06:10:04.436Z,3.47
2018-09-29T07:02:38.573Z,14.63
2018-09-29T07:05:07.582Z,9.90
2018-09-29T07:07:36.631Z,11.93
2018-09-29T07:10:05.646Z,10.70
2018-09-29T08:02:37.357Z,1.77
2018-09-29T08:05:06.477Z,1.43
2018-09-29T08:07:35.984Z,2.10
2018-09-29T08:10:05.092Z,2.23
2018-09-29T09:02:38.641Z,2.50
2018-09-29T09:05:08.549Z,1.13
2018-09-29T09:07:37.824Z,0.90
2018-09-29T09:10:06.948Z,0.67
2018-09-29T10:02:50.405Z,1.60
2018-09-29T10:05:20.720Z,1.40
2018-09-29T10:08:08.912Z,1.27
2018-09-29T12:02:43.852Z,2.40
2018-09-29T12:05:16.639Z,1.93
2018-09-29T12:07:45.918Z,1.40
2018-09-29T13:02:38.337Z,1.43
2018-09-29T13:05:07.639Z,1.23
2018-09-29T13:07:36.926Z,1.33
2018-09-29T13:10:06.273Z,1.20
2018-09-29T14:02:38.055Z,1.03
2018-09-29T14:05:07.461Z,1.50
2018-09-29T14:07:36.870Z,2.33
2018-09-29T14:10:06.157Z,1.17
2018-09-29T15:02:40.885Z,1.00
2018-09-29T15:05:10.033Z,1.90
2018-09-29T15:07:39.258Z,1.50
2018-09-29T15:10:09.799Z,1.08
2018-09-29T16:02:40.751Z,1.63
2018-09-29T16:05:10.058Z,2.60
2018-09-29T16:07:39.421Z,4.10
2018-09-29T16:10:08.711Z,4.03
2018-09-29T17:02:40.866Z,7.37
2018-09-29T17:05:10.013Z,5.93
2018-09-29T17:07:39.380Z,6.57
2018-09-29T18:02:38.636Z,6.50
2018-09-29T18:05:08.047Z,3.97
2018-09-29T18:07:38.472Z,5.00
2018-09-29T19:02:46.411Z,9.93
2018-09-29T19:05:16.814Z,8.67
2018-09-29T19:07:48.270Z,9.73
2018-09-29T20:02:45.064Z,10.73
2018-09-29T20:05:26.885Z,9.10
2018-09-29T20:08:00.835Z,9.97
2018-09-29T23:09:23.882Z,11.57
